Accueil
METAR-TAF:

METAR-TAF

Aéroports :

Aéroport de Rodez-Aveyron, Marcillac

Rodez, France

latitude: 44-24N, longitude: 002-29E, altitude: 581 m

Observation

Le bulletin a été fait il y a 27 minutes, à 16:30 UTC
Vent 6 kt de nord/nord-est
Température 7°C
Humidité 61%
Pression 1031 hPa
Visibilité 10 km ou plus
pas de nuages en-dessous de 1500 mètres et pas de cumulonimbus.

METAR: LFCR 021630Z AUTO 03006KT CAVOK 07/M00 Q1031 NOSIG

Heure: 17:57 (16:57 UTC)

Prévision

Le bulletin a été fait il y a 5 heures et 57 minutes, à 11:00 UTC
Prévision valable du 02 à 12 UTC au 03 à 12 UTC
Vent 7 kt de nord-ouest
Visibilité 10 km ou plus
pas de nuages en-dessous de 1500 mètres et pas de cumulonimbus.
Evoluant progressivement
du 02 à 19 UTC au 02 à 21 UTC
Vent 3 kt de direction variable

TAF: LFCR 021100Z 0212/0312 32007KT CAVOK BECMG 0219/0221 VRB03KT

Observations et prévisions météorologiques de plus de 4000 aéroports (messages METAR et TAF).

Les stations disponibles sont représentées par des disques jaunes et rouges sur la carte.

Passer la souris dessus pour voir le nom de la station.

Cliquer dessus pour voir les observations et prévisions météorologiques.

Pour changer de carte: cliquez sur les boutons verts avec une croix noire pour zoomer, sur le bouton vert avec un tiret pour effectuer un zoom arrière, ou sur les flèches vertes pour les cartes adjacentes.


METAR-TAF: